Time;durP1;ratioP1;P1;durP2;ratioP2;P2;SDS_P1;SDS_P2;PMS_P1;PMS_P2;Temp;Humidity;BMP_temperature;BMP_pressure;BME280_temperature;BME280_humidity;BME280_pressure;Samples;Min_cycle;Max_cycle;Signal;HPM_P1;HPM_P2
2023/07/07 00:01:02;;;;;;;4.70;2.55;;;;;;;;;;5067424;28;20384;-76
2023/07/07 00:03:27;;;;;;;4.70;2.50;;;;;;;;;;5081334;28;20384;-75
2023/07/07 00:05:53;;;;;;;6.07;2.80;;;;;;;;;;5073149;28;20020;-76
2023/07/07 00:08:18;;;;;;;4.90;2.50;;;;;;;;;;5072643;28;20028;-75
2023/07/07 00:10:44;;;;;;;5.82;2.60;;;;;;;;;;5073785;28;20136;-76
2023/07/07 00:13:14;;;;;;;4.25;2.25;;;;;;;;;;5069642;28;20035;-75
2023/07/07 00:15:44;;;;;;;4.70;2.30;;;;;;;;;;5086405;28;20067;-75
2023/07/07 00:18:11;;;;;;;4.95;2.60;;;;;;;;;;5070148;28;20024;-75
2023/07/07 00:20:37;;;;;;;4.82;2.60;;;;;;;;;;5088434;28;20020;-76
2023/07/07 00:23:02;;;;;;;3.70;2.35;;;;;;;;;;5063553;28;20085;-75
2023/07/07 00:25:28;;;;;;;5.93;2.80;;;;;;;;;;5087522;28;20027;-76
2023/07/07 00:27:53;;;;;;;4.43;2.60;;;;;;;;;;5087667;28;20120;-75
2023/07/07 00:30:18;;;;;;;4.68;2.53;;;;;;;;;;5071197;28;20027;-75
2023/07/07 00:32:44;;;;;;;4.53;2.55;;;;;;;;;;5069731;28;20039;-75
2023/07/07 00:35:09;;;;;;;5.55;2.90;;;;;;;;;;5069355;28;20031;-75
2023/07/07 00:37:35;;;;;;;5.30;2.78;;;;;;;;;;5092927;28;20092;-75
2023/07/07 00:40:02;;;;;;;4.28;2.45;;;;;;;;;;5090730;28;20067;-75
2023/07/07 00:42:28;;;;;;;6.03;2.80;;;;;;;;;;5090745;28;20107;-75
2023/07/07 00:45:13;;;;;;;4.15;2.67;;;;;;;;;;5090049;28;20107;-76
2023/07/07 00:47:54;;;;;;;6.32;2.85;;;;;;;;;;5093214;28;20024;-75
2023/07/07 00:50:23;;;;;;;4.88;2.72;;;;;;;;;;5079559;28;20034;-75
2023/07/07 00:52:49;;;;;;;5.53;2.97;;;;;;;;;;5072264;28;20107;-75
2023/07/07 00:55:22;;;;;;;5.65;3.00;;;;;;;;;;5067535;28;20111;-75
2023/07/07 00:57:48;;;;;;;6.03;2.88;;;;;;;;;;5069622;28;20028;-75
2023/07/07 01:00:14;;;;;;;4.47;2.78;;;;;;;;;;5066232;28;20031;-75
2023/07/07 01:02:43;;;;;;;5.82;2.85;;;;;;;;;;5081057;28;20032;-76
2023/07/07 01:05:08;;;;;;;4.43;2.83;;;;;;;;;;5065699;28;20099;-75
2023/07/07 01:07:41;;;;;;;5.88;2.90;;;;;;;;;;5072874;28;20159;-75
2023/07/07 01:10:07;;;;;;;5.20;3.08;;;;;;;;;;5067013;28;20405;-75
2023/07/07 01:12:32;;;;;;;5.50;3.08;;;;;;;;;;5064181;28;20031;-75
2023/07/07 01:14:58;;;;;;;6.68;2.90;;;;;;;;;;5067694;28;20030;-75
2023/07/07 01:17:58;;;;;;;5.60;3.47;;;;;;;;;;5084592;28;20028;-76
2023/07/07 01:20:42;;;;;;;5.40;3.40;;;;;;;;;;5064359;28;20060;-75
2023/07/07 01:23:24;;;;;;;7.25;3.53;;;;;;;;;;5068081;28;20397;-75
2023/07/07 01:26:07;;;;;;;5.85;3.35;;;;;;;;;;5068314;28;20401;-75
2023/07/07 01:29:03;;;;;;;8.13;3.75;;;;;;;;;;5070945;28;20024;-75
2023/07/07 01:31:40;;;;;;;6.10;3.65;;;;;;;;;;5069002;28;20070;-75
2023/07/07 01:34:10;;;;;;;5.78;3.70;;;;;;;;;;5067388;28;20028;-75
2023/07/07 01:36:36;;;;;;;6.10;3.58;;;;;;;;;;5069512;28;20028;-76
2023/07/07 01:39:01;;;;;;;5.43;3.55;;;;;;;;;;5069251;28;20115;-75
2023/07/07 01:41:49;;;;;;;5.38;3.55;;;;;;;;;;5068015;28;20028;-75
2023/07/07 01:44:50;;;;;;;6.05;3.53;;;;;;;;;;5067360;28;20020;-75
2023/07/07 01:47:23;;;;;;;5.43;3.50;;;;;;;;;;5067264;28;20028;-75
2023/07/07 01:49:54;;;;;;;6.07;3.45;;;;;;;;;;5070246;28;20070;-76
2023/07/07 01:52:24;;;;;;;5.35;3.60;;;;;;;;;;5084294;28;20028;-75
2023/07/07 01:54:59;;;;;;;6.43;3.75;;;;;;;;;;5065665;28;20042;-75
2023/07/07 01:57:27;;;;;;;6.93;4.13;;;;;;;;;;5071014;28;20140;-75
2023/07/07 01:59:53;;;;;;;8.25;3.97;;;;;;;;;;5090612;28;20023;-76
2023/07/07 02:02:19;;;;;;;5.95;3.85;;;;;;;;;;5078220;28;20024;-76
2023/07/07 02:04:44;;;;;;;7.38;4.18;;;;;;;;;;5066959;28;20042;-75
2023/07/07 02:07:09;;;;;;;5.28;3.58;;;;;;;;;;5070001;28;20027;-82
2023/07/07 02:09:36;;;;;;;5.95;3.80;;;;;;;;;;5074227;28;20028;-82
2023/07/07 02:12:02;;;;;;;6.03;3.53;;;;;;;;;;5086497;28;20027;-82
2023/07/07 02:14:27;;;;;;;5.30;3.75;;;;;;;;;;5086693;28;20103;-82
2023/07/07 02:16:52;;;;;;;7.03;4.20;;;;;;;;;;5090133;28;20063;-82
2023/07/07 02:19:18;;;;;;;5.80;4.00;;;;;;;;;;5070656;28;20026;-83
2023/07/07 02:21:43;;;;;;;5.63;3.78;;;;;;;;;;5087708;28;20484;-82
2023/07/07 02:24:08;;;;;;;5.72;3.65;;;;;;;;;;5073937;28;20028;-82
2023/07/07 02:26:34;;;;;;;5.28;3.90;;;;;;;;;;5090214;28;20024;-82
2023/07/07 02:29:00;;;;;;;8.85;4.43;;;;;;;;;;5066749;28;20024;-82
2023/07/07 02:31:26;;;;;;;5.80;4.00;;;;;;;;;;5076274;28;20036;-82
2023/07/07 02:33:52;;;;;;;6.47;3.95;;;;;;;;;;5093154;28;20119;-82
2023/07/07 02:36:18;;;;;;;6.53;3.72;;;;;;;;;;5075093;28;20066;-82
2023/07/07 02:38:45;;;;;;;6.10;4.13;;;;;;;;;;5093642;28;20039;-82
2023/07/07 02:41:10;;;;;;;5.53;3.92;;;;;;;;;;5092473;28;20028;-83
2023/07/07 02:43:36;;;;;;;6.35;3.63;;;;;;;;;;5090369;28;20468;-82
2023/07/07 02:46:02;;;;;;;6.43;4.47;;;;;;;;;;5087273;28;20024;-82
2023/07/07 02:48:27;;;;;;;5.90;4.10;;;;;;;;;;5075286;28;20028;-83
2023/07/07 02:51:01;;;;;;;8.80;4.43;;;;;;;;;;5093008;28;20044;-82
2023/07/07 02:53:33;;;;;;;6.55;4.07;;;;;;;;;;5092558;28;20388;-83
2023/07/07 02:55:58;;;;;;;6.25;4.20;;;;;;;;;;5068066;28;20036;-83
2023/07/07 02:58:24;;;;;;;8.15;4.60;;;;;;;;;;5072400;28;20032;-82
2023/07/07 03:00:50;;;;;;;7.47;4.30;;;;;;;;;;5085916;28;20028;-81
2023/07/07 03:03:16;;;;;;;8.10;4.05;;;;;;;;;;5088023;28;20029;-82
2023/07/07 03:05:42;;;;;;;6.97;4.35;;;;;;;;;;5093954;28;20375;-82
2023/07/07 03:08:08;;;;;;;7.15;5.00;;;;;;;;;;5087441;28;20027;-81
2023/07/07 03:10:40;;;;;;;5.78;4.15;;;;;;;;;;5088857;28;20024;-82
2023/07/07 03:13:05;;;;;;;5.88;4.10;;;;;;;;;;5071066;28;20464;-77
2023/07/07 03:15:39;;;;;;;6.70;4.18;;;;;;;;;;5088255;28;20035;-83
2023/07/07 03:18:09;;;;;;;6.60;4.22;;;;;;;;;;5086928;28;20031;-82
2023/07/07 03:20:36;;;;;;;6.95;4.40;;;;;;;;;;5086306;28;20027;-82
2023/07/07 03:23:02;;;;;;;6.43;4.55;;;;;;;;;;5086928;28;20024;-82
2023/07/07 03:25:28;;;;;;;6.18;4.30;;;;;;;;;;5068898;28;20020;-80
2023/07/07 03:27:53;;;;;;;5.65;3.97;;;;;;;;;;5088144;28;20032;-81
2023/07/07 03:30:19;;;;;;;6.38;4.30;;;;;;;;;;5091458;28;20027;-83
2023/07/07 03:32:44;;;;;;;10.10;4.22;;;;;;;;;;5088946;28;20392;-82
2023/07/07 03:35:10;;;;;;;6.63;3.97;;;;;;;;;;5068603;28;20063;-82
2023/07/07 03:37:39;;;;;;;7.25;4.15;;;;;;;;;;5072788;28;20031;-82
2023/07/07 03:40:06;;;;;;;6.00;3.88;;;;;;;;;;5070477;28;20020;-83
2023/07/07 03:42:32;;;;;;;6.90;4.38;;;;;;;;;;5086164;28;20033;-83
2023/07/07 03:44:58;;;;;;;7.47;4.30;;;;;;;;;;5087600;28;20032;-80
2023/07/07 03:47:23;;;;;;;6.07;3.88;;;;;;;;;;5066624;28;20035;-83
2023/07/07 03:49:49;;;;;;;6.45;3.78;;;;;;;;;;5089600;28;20030;-81
2023/07/07 03:52:15;;;;;;;6.22;4.15;;;;;;;;;;5069884;28;20118;-82
2023/07/07 03:54:41;;;;;;;6.18;4.07;;;;;;;;;;5089461;28;20095;-82
2023/07/07 03:57:08;;;;;;;6.65;3.90;;;;;;;;;;5052910;28;20044;-83
2023/07/07 03:59:33;;;;;;;7.05;3.97;;;;;;;;;;5070705;28;20446;-82
2023/07/07 04:01:59;;;;;;;6.00;3.83;;;;;;;;;;5087231;28;20020;-81
2023/07/07 04:04:25;;;;;;;8.20;4.18;;;;;;;;;;5085565;28;20099;-82
2023/07/07 04:06:56;;;;;;;6.80;3.88;;;;;;;;;;5071846;28;20031;-83
2023/07/07 04:09:22;;;;;;;7.15;3.92;;;;;;;;;;5073170;28;20051;-83
2023/07/07 04:11:47;;;;;;;8.05;4.20;;;;;;;;;;5086380;28;20496;-77
2023/07/07 04:14:13;;;;;;;7.22;4.07;;;;;;;;;;5070284;28;20024;-83
2023/07/07 04:16:38;;;;;;;6.45;4.05;;;;;;;;;;5091209;28;20108;-82
2023/07/07 04:19:04;;;;;;;6.53;3.88;;;;;;;;;;5088418;28;20042;-81
2023/07/07 04:21:30;;;;;;;6.50;3.70;;;;;;;;;;5086058;28;20020;-81
2023/07/07 04:23:57;;;;;;;7.15;4.28;;;;;;;;;;5086097;28;20028;-81
2023/07/07 04:26:24;;;;;;;9.75;3.90;;;;;;;;;;5061866;28;20036;-83
2023/07/07 04:28:51;;;;;;;6.38;3.80;;;;;;;;;;5088837;28;20383;-83
2023/07/07 04:31:16;;;;;;;6.40;4.22;;;;;;;;;;5087224;28;20480;-81
2023/07/07 04:33:42;;;;;;;6.95;3.70;;;;;;;;;;5064864;28;20021;-82
2023/07/07 04:36:10;;;;;;;7.18;4.10;;;;;;;;;;5090851;28;20373;-80
2023/07/07 04:38:36;;;;;;;8.05;4.80;;;;;;;;;;5075659;28;20020;-82
2023/07/07 04:41:12;;;;;;;6.25;4.28;;;;;;;;;;5088835;28;20472;-81
2023/07/07 04:43:41;;;;;;;5.82;4.28;;;;;;;;;;5086505;28;20047;-79
2023/07/07 04:46:09;;;;;;;6.53;4.05;;;;;;;;;;5090932;28;20024;-83
2023/07/07 04:48:34;;;;;;;6.95;4.40;;;;;;;;;;5094975;28;20081;-82
2023/07/07 04:51:09;;;;;;;6.43;4.20;;;;;;;;;;5093194;28;20142;-82
2023/07/07 04:53:36;;;;;;;6.25;4.65;;;;;;;;;;5072330;28;20033;-83
2023/07/07 04:56:06;;;;;;;9.27;4.38;;;;;;;;;;5095033;28;20491;-83
2023/07/07 04:58:31;;;;;;;8.25;4.60;;;;;;;;;;5067200;28;20028;-80
2023/07/07 05:01:11;;;;;;;7.32;4.18;;;;;;;;;;5082381;28;20558;-82
2023/07/07 05:03:38;;;;;;;7.65;4.47;;;;;;;;;;5082818;28;20024;-82
2023/07/07 05:06:03;;;;;;;6.53;4.47;;;;;;;;;;5074003;28;20028;-83
2023/07/07 05:08:32;;;;;;;5.82;4.28;;;;;;;;;;5071974;28;20032;-81
2023/07/07 05:10:57;;;;;;;7.93;4.60;;;;;;;;;;5070316;28;20547;-83
2023/07/07 05:13:23;;;;;;;7.28;4.45;;;;;;;;;;5070724;28;20161;-82
2023/07/07 05:15:48;;;;;;;7.93;4.70;;;;;;;;;;5087272;28;20381;-82
2023/07/07 05:18:16;;;;;;;6.05;4.32;;;;;;;;;;5070308;28;20028;-82
2023/07/07 05:20:42;;;;;;;6.18;4.18;;;;;;;;;;5073325;28;20476;-82
2023/07/07 05:23:07;;;;;;;7.88;4.75;;;;;;;;;;5067021;28;20423;-77
2023/07/07 05:25:33;;;;;;;8.05;5.00;;;;;;;;;;5087988;28;20021;-77
2023/07/07 05:27:58;;;;;;;7.80;4.90;;;;;;;;;;5085716;28;20185;-83
2023/07/07 05:30:24;;;;;;;5.82;4.15;;;;;;;;;;5065729;28;20482;-83
2023/07/07 05:32:49;;;;;;;5.90;4.30;;;;;;;;;;5084536;28;20115;-78
2023/07/07 05:35:14;;;;;;;8.98;4.88;;;;;;;;;;5083363;28;20024;-83
2023/07/07 05:37:40;;;;;;;8.02;4.60;;;;;;;;;;5066622;28;20024;-81
2023/07/07 05:40:06;;;;;;;6.35;4.13;;;;;;;;;;5063308;28;20079;-80
2023/07/07 05:42:31;;;;;;;6.90;4.22;;;;;;;;;;5068195;28;20036;-83
2023/07/07 05:44:57;;;;;;;7.18;4.63;;;;;;;;;;5062690;28;20024;-82
2023/07/07 05:47:22;;;;;;;6.57;4.20;;;;;;;;;;5084633;28;20027;-78
2023/07/07 05:49:52;;;;;;;5.95;3.90;;;;;;;;;;5084249;28;20045;-82
2023/07/07 05:52:17;;;;;;;7.53;4.28;;;;;;;;;;5069256;28;20024;-82
2023/07/07 05:54:43;;;;;;;9.18;4.03;;;;;;;;;;5067299;28;20400;-81
2023/07/07 05:57:08;;;;;;;5.60;3.70;;;;;;;;;;5063195;28;20024;-77
2023/07/07 05:59:33;;;;;;;6.13;3.80;;;;;;;;;;5067455;28;20028;-83
2023/07/07 06:01:59;;;;;;;5.65;3.45;;;;;;;;;;5063550;28;20032;-83
2023/07/07 06:04:25;;;;;;;7.18;3.92;;;;;;;;;;5063955;28;20021;-83
2023/07/07 06:06:50;;;;;;;5.18;3.33;;;;;;;;;;5064846;28;20036;-82
2023/07/07 06:09:16;;;;;;;6.80;3.85;;;;;;;;;;5060376;28;20032;-78
2023/07/07 06:11:41;;;;;;;5.72;3.90;;;;;;;;;;5060041;28;20507;-82
2023/07/07 06:14:06;;;;;;;7.95;4.10;;;;;;;;;;5061021;28;20051;-82
2023/07/07 06:16:32;;;;;;;7.05;4.63;;;;;;;;;;5065610;28;20028;-83
2023/07/07 06:18:57;;;;;;;7.65;4.15;;;;;;;;;;5072227;28;20038;-83
2023/07/07 06:21:22;;;;;;;7.07;4.43;;;;;;;;;;5048979;28;20041;-82
2023/07/07 06:23:48;;;;;;;7.93;4.60;;;;;;;;;;5068654;28;20035;-82
2023/07/07 06:26:13;;;;;;;9.35;4.20;;;;;;;;;;5060534;28;20053;-82
2023/07/07 06:28:39;;;;;;;8.32;4.50;;;;;;;;;;5061989;28;20030;-80
2023/07/07 06:31:04;;;;;;;7.70;4.63;;;;;;;;;;5067328;28;20379;-83
2023/07/07 06:33:29;;;;;;;6.55;4.75;;;;;;;;;;5047976;28;20433;-83
2023/07/07 06:35:55;;;;;;;6.60;4.70;;;;;;;;;;5067355;28;20071;-82
2023/07/07 06:38:20;;;;;;;8.27;4.35;;;;;;;;;;5070268;28;20112;-84
2023/07/07 06:40:47;;;;;;;10.02;4.72;;;;;;;;;;5060999;28;20025;-79
2023/07/07 06:43:15;;;;;;;9.63;4.47;;;;;;;;;;5061237;28;20020;-82
2023/07/07 06:45:40;;;;;;;6.65;3.90;;;;;;;;;;5082824;28;20029;-83
2023/07/07 06:48:05;;;;;;;6.80;4.15;;;;;;;;;;5065948;28;20035;-83
2023/07/07 06:50:36;;;;;;;4.82;3.50;;;;;;;;;;5078562;28;20472;-83
2023/07/07 06:53:02;;;;;;;7.03;3.50;;;;;;;;;;5083687;28;20385;-83
2023/07/07 06:55:28;;;;;;;6.07;3.65;;;;;;;;;;5083021;28;20050;-82
2023/07/07 06:57:54;;;;;;;6.15;3.53;;;;;;;;;;5084032;28;20151;-77
2023/07/07 07:00:19;;;;;;;7.10;3.40;;;;;;;;;;5088124;28;20038;-83
2023/07/07 07:02:45;;;;;;;6.00;3.40;;;;;;;;;;5086012;28;20043;-83
2023/07/07 07:05:11;;;;;;;6.38;3.20;;;;;;;;;;5088774;28;20021;-83
2023/07/07 07:07:36;;;;;;;5.20;3.17;;;;;;;;;;5084327;28;20024;-83
2023/07/07 07:10:03;;;;;;;6.70;2.80;;;;;;;;;;5084154;28;20032;-82
2023/07/07 07:12:30;;;;;;;4.45;2.80;;;;;;;;;;5085982;28;20028;-82
2023/07/07 07:14:55;;;;;;;6.13;2.70;;;;;;;;;;5083387;28;20147;-83
2023/07/07 07:17:24;;;;;;;6.72;2.80;;;;;;;;;;5082717;28;20495;-82
2023/07/07 07:19:50;;;;;;;5.40;2.53;;;;;;;;;;5084429;28;20024;-83
2023/07/07 07:22:15;;;;;;;4.35;2.40;;;;;;;;;;5080940;28;20042;-83
2023/07/07 07:24:42;;;;;;;5.22;2.45;;;;;;;;;;5062559;28;20396;-87
2023/07/07 07:27:07;;;;;;;5.60;2.15;;;;;;;;;;5084291;28;20089;-84
2023/07/07 07:29:33;;;;;;;4.28;2.17;;;;;;;;;;5063741;28;20032;-80
2023/07/07 07:31:58;;;;;;;4.10;2.00;;;;;;;;;;5078727;28;20039;-85
2023/07/07 07:34:25;;;;;;;3.83;1.90;;;;;;;;;;5084153;28;21087;-84
2023/07/07 07:36:52;;;;;;;4.35;2.10;;;;;;;;;;5055976;28;20512;-81
2023/07/07 07:39:17;;;;;;;4.75;2.40;;;;;;;;;;5080669;28;20158;-82
2023/07/07 07:41:46;;;;;;;4.82;2.00;;;;;;;;;;5083138;28;20519;-79
2023/07/07 07:44:11;;;;;;;4.43;1.70;;;;;;;;;;5079606;28;20028;-83
2023/07/07 07:46:37;;;;;;;5.47;1.70;;;;;;;;;;5076869;28;20032;-82
2023/07/07 07:49:02;;;;;;;6.38;1.83;;;;;;;;;;5082723;28;20559;-85
2023/07/07 07:51:28;;;;;;;4.00;1.77;;;;;;;;;;5067528;28;20029;-83
2023/07/07 07:53:53;;;;;;;4.00;1.55;;;;;;;;;;5061817;28;20563;-85
2023/07/07 07:56:19;;;;;;;3.47;1.70;;;;;;;;;;5065714;28;20029;-86
2023/07/07 07:58:44;;;;;;;5.22;1.90;;;;;;;;;;5060603;28;20029;-85
2023/07/07 08:01:09;;;;;;;3.47;1.60;;;;;;;;;;5066582;28;20027;-86
2023/07/07 08:03:35;;;;;;;3.00;1.38;;;;;;;;;;5061839;28;20032;-84
2023/07/07 08:06:00;;;;;;;3.03;1.50;;;;;;;;;;5083991;28;20041;-84
2023/07/07 08:08:26;;;;;;;4.55;1.60;;;;;;;;;;5053452;28;20108;-84
2023/07/07 08:10:51;;;;;;;3.65;1.30;;;;;;;;;;5063275;28;20489;-82
2023/07/07 08:13:17;;;;;;;3.72;1.60;;;;;;;;;;5055137;28;20071;-83
2023/07/07 08:15:42;;;;;;;5.22;2.03;;;;;;;;;;5061222;28;20040;-84
2023/07/07 08:18:08;;;;;;;4.53;1.50;;;;;;;;;;5062599;28;20035;-78
2023/07/07 08:20:33;;;;;;;4.88;1.60;;;;;;;;;;5056029;28;20038;-84
2023/07/07 08:22:59;;;;;;;3.67;1.48;;;;;;;;;;5062235;28;20058;-83
2023/07/07 08:25:24;;;;;;;3.22;1.23;;;;;;;;;;5062844;28;20077;-80
2023/07/07 08:27:52;;;;;;;3.92;1.42;;;;;;;;;;5061507;28;20028;-82
2023/07/07 08:30:17;;;;;;;4.07;1.67;;;;;;;;;;5062635;28;20028;-83
2023/07/07 08:32:43;;;;;;;4.05;1.67;;;;;;;;;;5056766;28;20029;-81
2023/07/07 08:35:09;;;;;;;3.10;1.60;;;;;;;;;;5062593;28;20039;-82
2023/07/07 08:37:35;;;;;;;3.42;1.60;;;;;;;;;;5064507;28;20735;-84
2023/07/07 08:40:00;;;;;;;3.38;1.90;;;;;;;;;;5060533;28;20024;-82
2023/07/07 08:42:36;;;;;;;4.50;1.65;;;;;;;;;;5058975;28;20035;-79
2023/07/07 08:45:11;;;;;;;4.20;1.60;;;;;;;;;;5058935;28;20564;-80
2023/07/07 08:47:40;;;;;;;5.30;1.88;;;;;;;;;;5064713;28;20085;-80
2023/07/07 08:50:11;;;;;;;4.65;2.13;;;;;;;;;;5068603;28;20770;-84
2023/07/07 08:52:58;;;;;;;3.78;1.50;;;;;;;;;;5061884;28;20742;-83
2023/07/07 08:55:42;;;;;;;4.57;1.60;;;;;;;;;;5062096;28;20035;-79
2023/07/07 08:58:26;;;;;;;4.75;1.60;;;;;;;;;;5063811;28;20120;-82
2023/07/07 09:01:02;;;;;;;3.78;1.52;;;;;;;;;;5062974;28;20044;-79
2023/07/07 09:03:51;;;;;;;3.38;1.70;;;;;;;;;;5075272;28;20134;-82
2023/07/07 09:06:34;;;;;;;2.60;1.50;;;;;;;;;;5065599;28;20032;-80
2023/07/07 09:09:20;;;;;;;3.00;1.50;;;;;;;;;;5078245;28;20023;-82
2023/07/07 09:11:57;;;;;;;2.67;1.58;;;;;;;;;;5077661;28;20042;-81
2023/07/07 09:14:26;;;;;;;3.55;1.80;;;;;;;;;;5082204;28;20043;-81
2023/07/07 09:16:55;;;;;;;5.00;1.90;;;;;;;;;;5076548;28;20090;-82
2023/07/07 09:19:31;;;;;;;5.00;1.70;;;;;;;;;;5059866;28;20166;-82
2023/07/07 09:22:03;;;;;;;2.85;1.60;;;;;;;;;;5061981;28;20036;-83
2023/07/07 09:24:53;;;;;;;5.57;1.70;;;;;;;;;;5062580;28;20031;-81
2023/07/07 09:27:27;;;;;;;3.13;1.60;;;;;;;;;;5084179;28;20028;-80
2023/07/07 09:30:02;;;;;;;3.03;1.70;;;;;;;;;;5083580;28;20527;-83
2023/07/07 09:32:27;;;;;;;4.10;1.67;;;;;;;;;;5074842;28;20051;-82
2023/07/07 09:34:53;;;;;;;2.88;1.40;;;;;;;;;;5063060;28;20070;-82
2023/07/07 09:37:39;;;;;;;3.25;1.70;;;;;;;;;;5079792;28;20034;-80
2023/07/07 09:40:17;;;;;;;3.05;1.55;;;;;;;;;;5080173;28;20036;-82
2023/07/07 09:42:52;;;;;;;3.78;1.63;;;;;;;;;;5067077;28;20024;-80
2023/07/07 09:45:42;;;;;;;2.67;1.50;;;;;;;;;;5062261;28;20085;-81
2023/07/07 09:48:27;;;;;;;2.83;1.50;;;;;;;;;;5074017;28;20032;-79
2023/07/07 09:51:10;;;;;;;4.72;1.60;;;;;;;;;;5080727;28;20388;-83
2023/07/07 09:53:38;;;;;;;3.42;1.40;;;;;;;;;;5085618;28;20032;-83
2023/07/07 09:56:08;;;;;;;4.13;1.60;;;;;;;;;;5073361;28;20160;-82
2023/07/07 09:58:41;;;;;;;4.30;1.70;;;;;;;;;;5061720;28;20091;-82
2023/07/07 10:01:09;;;;;;;3.65;1.60;;;;;;;;;;5076193;28;20476;-82
2023/07/07 10:03:46;;;;;;;5.13;2.45;;;;;;;;;;5061923;28;20520;-81
2023/07/07 10:06:57;;;;;;;3.63;1.52;;;;;;;;;;5083483;28;20138;-78
2023/07/07 10:09:24;;;;;;;3.22;1.60;;;;;;;;;;5055296;28;21073;-82
2023/07/07 10:11:50;;;;;;;4.90;1.83;;;;;;;;;;5077305;28;20041;-80
2023/07/07 10:14:17;;;;;;;5.05;1.70;;;;;;;;;;5079278;28;20038;-78
2023/07/07 10:17:27;;;;;;;3.60;1.60;;;;;;;;;;5062828;28;20085;-81
2023/07/07 10:19:57;;;;;;;2.58;1.40;;;;;;;;;;4976369;28;20065;-81
2023/07/07 10:22:22;;;;;;;5.47;1.45;;;;;;;;;;5063611;28;20064;-81
2023/07/07 10:24:48;;;;;;;3.65;1.50;;;;;;;;;;5070792;28;20066;-81
2023/07/07 10:27:23;;;;;;;2.90;1.50;;;;;;;;;;5088694;28;20028;-80
2023/07/07 10:29:49;;;;;;;3.85;1.70;;;;;;;;;;5070350;28;20077;-82
2023/07/07 10:32:23;;;;;;;4.45;1.70;;;;;;;;;;5065286;28;20532;-83
2023/07/07 10:34:52;;;;;;;3.50;1.60;;;;;;;;;;5066588;28;20036;-82
2023/07/07 10:37:22;;;;;;;4.15;1.80;;;;;;;;;;5085380;28;20769;-83
2023/07/07 10:39:51;;;;;;;3.58;1.65;;;;;;;;;;5066952;28;20078;-83
2023/07/07 10:42:17;;;;;;;4.75;1.73;;;;;;;;;;5092147;28;20468;-82
2023/07/07 10:44:42;;;;;;;3.63;1.42;;;;;;;;;;5090424;28;20081;-81
2023/07/07 10:47:09;;;;;;;4.82;1.83;;;;;;;;;;5072455;28;20023;-81
2023/07/07 10:49:34;;;;;;;3.17;1.58;;;;;;;;;;5086944;28;20035;-80
2023/07/07 10:52:11;;;;;;;4.85;1.70;;;;;;;;;;5070967;28;20036;-81
2023/07/07 10:54:40;;;;;;;3.65;1.73;;;;;;;;;;5064784;28;20090;-81
2023/07/07 10:57:22;;;;;;;5.00;1.55;;;;;;;;;;5069516;28;20094;-81
2023/07/07 11:00:02;;;;;;;5.10;1.65;;;;;;;;;;5066559;28;20025;-80
2023/07/07 11:03:03;;;;;;;3.92;1.77;;;;;;;;;;5065119;28;20523;-80
2023/07/07 11:05:28;;;;;;;2.53;1.60;;;;;;;;;;5078064;28;20031;-81
2023/07/07 11:08:00;;;;;;;3.10;1.65;;;;;;;;;;5062386;28;20399;-78
2023/07/07 11:10:43;;;;;;;3.25;1.75;;;;;;;;;;5064705;28;20059;-81
2023/07/07 11:13:40;;;;;;;3.30;1.55;;;;;;;;;;5059919;28;20055;-79
2023/07/07 11:16:20;;;;;;;3.85;1.80;;;;;;;;;;5064693;28;20059;-80
2023/07/07 11:19:10;;;;;;;4.63;2.20;;;;;;;;;;5067053;28;20375;-80
2023/07/07 11:22:00;;;;;;;4.38;2.00;;;;;;;;;;5065423;28;20025;-78
2023/07/07 11:24:31;;;;;;;4.50;2.00;;;;;;;;;;5070463;28;20127;-81
2023/07/07 11:27:46;;;;;;;3.90;1.80;;;;;;;;;;5081274;28;20032;-81
2023/07/07 11:30:22;;;;;;;5.03;2.10;;;;;;;;;;5027382;28;20026;-80
2023/07/07 11:33:21;;;;;;;3.20;1.70;;;;;;;;;;5015591;28;20391;-78
2023/07/07 11:35:53;;;;;;;4.55;2.03;;;;;;;;;;5075615;28;20059;-78
2023/07/07 11:38:53;;;;;;;2.83;1.63;;;;;;;;;;5080286;28;20021;-80
2023/07/07 11:41:46;;;;;;;3.63;1.83;;;;;;;;;;5096273;28;20044;-85
2023/07/07 11:44:34;;;;;;;3.83;2.15;;;;;;;;;;5084991;22;20049;-78
2023/07/07 11:47:21;;;;;;;3.97;2.08;;;;;;;;;;5027742;28;20489;-79
2023/07/07 11:50:11;;;;;;;3.72;1.70;;;;;;;;;;5045445;28;20120;-79
2023/07/07 11:53:09;;;;;;;3.90;1.85;;;;;;;;;;5055074;28;20028;-79
2023/07/07 11:56:06;;;;;;;6.05;2.13;;;;;;;;;;5037032;28;20483;-79
2023/07/07 11:58:47;;;;;;;2.55;1.60;;;;;;;;;;5046359;28;20036;-79
2023/07/07 12:01:21;;;;;;;4.05;2.00;;;;;;;;;;5049099;28;20095;-78
2023/07/07 12:03:59;;;;;;;5.20;1.90;;;;;;;;;;5043712;28;20448;-79
2023/07/07 12:06:34;;;;;;;3.90;1.52;;;;;;;;;;5035602;28;20021;-78
2023/07/07 12:09:20;;;;;;;4.10;2.05;;;;;;;;;;5047708;28;20091;-78
2023/07/07 12:11:51;;;;;;;3.90;1.80;;;;;;;;;;5049976;28;20039;-77
2023/07/07 12:14:26;;;;;;;3.83;1.73;;;;;;;;;;5035467;28;20025;-78
2023/07/07 12:16:54;;;;;;;4.72;1.83;;;;;;;;;;5035050;28;20025;-78
2023/07/07 12:19:47;;;;;;;2.88;1.58;;;;;;;;;;5039050;28;20036;-78
2023/07/07 12:22:16;;;;;;;;;;;;;;;;;;5050657;28;20404;-78
2023/07/07 12:25:07;;;;;;;4.00;1.83;;;;;;;;;;5046727;28;20542;-78
2023/07/07 12:27:39;;;;;;;4.22;1.88;;;;;;;;;;5052264;28;20039;-79
2023/07/07 12:30:25;;;;;;;3.53;1.90;;;;;;;;;;5053264;28;20407;-78
2023/07/07 12:32:52;;;;;;;3.80;1.90;;;;;;;;;;5028414;28;21090;-78
2023/07/07 12:35:42;;;;;;;5.25;2.03;;;;;;;;;;5029844;28;20476;-78
2023/07/07 12:38:29;;;;;;;4.80;1.88;;;;;;;;;;5043668;28;20031;-79
2023/07/07 12:40:58;;;;;;;3.42;1.77;;;;;;;;;;5030750;28;20110;-79
2023/07/07 12:43:38;;;;;;;4.18;1.85;;;;;;;;;;5052658;28;20482;-79
2023/07/07 12:46:08;;;;;;;3.72;1.85;;;;;;;;;;5035314;28;20059;-79
2023/07/07 12:48:33;;;;;;;3.42;1.70;;;;;;;;;;5032597;28;20497;-79
2023/07/07 12:51:05;;;;;;;4.70;1.77;;;;;;;;;;5055623;28;20033;-79
2023/07/07 12:53:42;;;;;;;4.55;1.70;;;;;;;;;;5033629;28;20112;-79
2023/07/07 12:56:07;;;;;;;4.20;1.70;;;;;;;;;;5048269;28;20017;-79
2023/07/07 12:58:38;;;;;;;2.60;1.60;;;;;;;;;;5051333;28;20063;-79
2023/07/07 13:01:19;;;;;;;7.60;2.08;;;;;;;;;;5041552;28;20032;-79
2023/07/07 13:04:10;;;;;;;5.97;1.80;;;;;;;;;;5047722;28;20799;-79
2023/07/07 13:06:56;;;;;;;4.68;1.90;;;;;;;;;;5032721;28;20046;-79
2023/07/07 13:09:25;;;;;;;3.55;1.90;;;;;;;;;;5049431;28;20115;-78
2023/07/07 13:11:56;;;;;;;3.63;1.80;;;;;;;;;;5055444;28;20678;-79
2023/07/07 13:14:28;;;;;;;3.85;1.60;;;;;;;;;;5031057;28;20119;-79
2023/07/07 13:16:59;;;;;;;5.03;1.70;;;;;;;;;;5039817;28;20063;-79
2023/07/07 13:19:25;;;;;;;3.53;1.60;;;;;;;;;;5029865;28;20075;-79
2023/07/07 13:21:53;;;;;;;3.95;1.80;;;;;;;;;;5048278;28;20028;-79
2023/07/07 13:24:20;;;;;;;3.35;1.67;;;;;;;;;;5024854;28;20044;-79
2023/07/07 13:26:46;;;;;;;4.13;2.00;;;;;;;;;;5023056;28;20029;-79
2023/07/07 13:29:11;;;;;;;3.88;1.90;;;;;;;;;;5040975;28;20029;-79
2023/07/07 13:31:42;;;;;;;4.00;2.08;;;;;;;;;;5027897;28;20032;-78
2023/07/07 13:34:25;;;;;;;4.68;1.75;;;;;;;;;;5046904;28;20043;-79
2023/07/07 13:36:51;;;;;;;4.25;1.60;;;;;;;;;;5042603;28;20485;-79
2023/07/07 13:39:18;;;;;;;4.63;1.77;;;;;;;;;;5036939;28;20036;-79
2023/07/07 13:41:45;;;;;;;4.70;1.90;;;;;;;;;;5024967;28;20059;-79
2023/07/07 13:44:19;;;;;;;4.25;1.98;;;;;;;;;;5020814;28;20033;-79
2023/07/07 13:46:49;;;;;;;4.07;2.00;;;;;;;;;;5040697;28;20471;-79
2023/07/07 13:49:18;;;;;;;2.97;1.70;;;;;;;;;;5034040;28;20529;-80
2023/07/07 13:51:52;;;;;;;7.38;1.70;;;;;;;;;;5042287;28;20093;-80
2023/07/07 13:54:21;;;;;;;3.72;1.92;;;;;;;;;;5044905;28;20024;-79
2023/07/07 13:56:50;;;;;;;3.95;1.77;;;;;;;;;;5041511;28;20029;-80
2023/07/07 13:59:25;;;;;;;4.45;1.90;;;;;;;;;;5023075;28;20665;-80
2023/07/07 14:01:52;;;;;;;3.25;1.85;;;;;;;;;;5040230;28;20040;-80
2023/07/07 14:04:23;;;;;;;4.90;1.70;;;;;;;;;;5026494;28;20025;-80
2023/07/07 14:06:49;;;;;;;4.25;1.70;;;;;;;;;;5027172;28;20094;-79
2023/07/07 14:09:27;;;;;;;4.45;1.90;;;;;;;;;;5046881;28;20543;-79
2023/07/07 14:11:56;;;;;;;4.60;1.80;;;;;;;;;;5039837;28;20739;-80
2023/07/07 14:14:21;;;;;;;3.72;1.58;;;;;;;;;;5029510;28;20047;-80
2023/07/07 14:16:53;;;;;;;5.05;1.70;;;;;;;;;;5028685;28;20378;-80
2023/07/07 14:19:25;;;;;;;3.08;1.75;;;;;;;;;;5039581;28;20112;-79
2023/07/07 14:21:51;;;;;;;3.45;1.58;;;;;;;;;;5038411;28;20032;-80
2023/07/07 14:24:28;;;;;;;3.25;1.80;;;;;;;;;;5051366;28;20123;-83
2023/07/07 14:26:54;;;;;;;3.08;1.65;;;;;;;;;;5032029;28;20040;-81
2023/07/07 14:29:29;;;;;;;5.80;1.90;;;;;;;;;;5045490;28;20036;-84
2023/07/07 14:32:04;;;;;;;3.28;1.50;;;;;;;;;;5045851;28;20065;-82
2023/07/07 14:34:29;;;;;;;3.78;1.70;;;;;;;;;;5032517;28;20051;-84
2023/07/07 14:36:56;;;;;;;4.45;1.70;;;;;;;;;;5026300;28;20037;-83
2023/07/07 14:39:27;;;;;;;2.90;1.55;;;;;;;;;;5044855;28;20021;-83
2023/07/07 14:42:09;;;;;;;3.85;1.60;;;;;;;;;;5027740;28;20051;-84
2023/07/07 14:44:47;;;;;;;2.72;1.48;;;;;;;;;;5030546;28;20037;-84
2023/07/07 14:47:20;;;;;;;3.95;1.88;;;;;;;;;;5039980;28;20127;-81
2023/07/07 14:49:45;;;;;;;;;;;;;;;;;;5043456;28;20146;-82
2023/07/07 14:52:22;;;;;;;3.13;1.60;;;;;;;;;;5044643;28;20034;-83
2023/07/07 14:54:49;;;;;;;3.40;1.40;;;;;;;;;;5052387;28;20060;-82
2023/07/07 14:57:19;;;;;;;4.10;1.63;;;;;;;;;;5022966;28;20910;-84
2023/07/07 14:59:46;;;;;;;3.50;1.92;;;;;;;;;;5023901;28;20048;-80
2023/07/07 15:02:14;;;;;;;4.15;1.73;;;;;;;;;;5024073;28;20090;-81
2023/07/07 15:04:41;;;;;;;3.17;1.70;;;;;;;;;;5039279;28;20045;-83